METAR Data
IDs: Format: Raw Decoded Include TAF

Data at: 2056 UTC 19 May 2019

KRDK 192035Z AUTO 31016KT 10SM BKN035 OVC045 15/08 A2987 RMK AO2
KRDK 192015Z AUTO 31012G20KT 10SM FEW032 BKN042 OVC050 14/08 A2987 RMK AO2
KRDK 191955Z AUTO 30012G21KT 10SM SCT035 BKN042 OVC049 14/08 A2986 RMK AO2
KRDK 191935Z AUTO 31014G20KT 10SM BKN034 BKN040 OVC055 15/08 A2984 RMK AO2
KRDK 191915Z AUTO 31014G21KT 10SM BKN032 BKN040 OVC055 15/09 A2983 RMK AO2
KRDK 191855Z AUTO 31014G21KT 10SM BKN031 BKN039 OVC055 15/09 A2982 RMK AO2
KRDK 191835Z AUTO 30012G18KT 10SM SCT025 BKN031 OVC039 14/09 A2982 RMK AO2
KRDK 191815Z AUTO 31015G22KT 10SM BKN025 OVC031 13/09 A2982 RMK AO2
KRDK 191755Z AUTO 30013KT 10SM FEW021 OVC029 13/09 A2982 RMK AO2
KRDK 191735Z AUTO 12/96000013G23KT 10SM FEW021 BKN030 OVC035 13/09 A2982 RMK AO2
KRDK 191715Z AUTO 30014G25KT 5SM BR FEW019 BKN029 OVC034 12/11 A2980 RMK AO2
KRDK 191655Z AUTO 30013G20KT 270V330 10SM SCT023 BKN028 OVC035 14/10 A2979 RMK AO2
KRDK 191635Z AUTO 29011G18KT 8SM OVC023 12/10 A2978 RMK AO2
KRDK 191615Z AUTO 30012G22KT 10SM OVC023 13/10 A2976 RMK AO2
KRDK 191555Z AUTO 32014KT 10SM BKN018 OVC024 13/11 A2975 RMK AO2
KRDK 191535Z AUTO 31012G20KT 9SM OVC019 13/10 A2974 RMK AO2
KRDK 191515Z AUTO 31013G23KT 8SM BKN019 OVC026 13/10 A2973 RMK AO2
KRDK 191455Z AUTO 30014G23KT 10SM BKN020 BKN025 OVC029 13/10 A2973 RMK AO2
KRDK 191435Z AUTO 30013G23KT 10SM OVC020 13/10 A2972 RMK AO2
KRDK 191415Z AUTO 31013G19KT 10SM BKN017 BKN023 OVC028 13/11 A2971 RMK AO2
KRDK 191355Z AUTO 30015G21KT 10SM FEW015 SCT020 OVC028 13/11 A2971 RMK AO2
KRDK 191335Z AUTO 30013G20KT 10SM OVC026 13/11 A2970 RMK AO2
KRDK 191315Z AUTO 31010G15KT 10SM BKN021 OVC026 13/11 A2969 RMK AO2
KRDK 191255Z AUTO 31014KT 10SM BKN019 OVC030 13/12 A2968 RMK AO2
KRDK 191235Z AUTO 29012G18KT 10SM SCT017 OVC032 13/12 A2966 RMK AO2
KRDK 191215Z AUTO 30008G15KT 10SM BKN016 OVC034 13/12 A2965 RMK AO2
KRDK 191155Z AUTO 30008G13KT 10SM BKN015 OVC036 13/13 A2965 RMK AO2
KRDK 191135Z AUTO 30006G13KT 7SM -DZ BKN015 BKN032 OVC055 13/13 A2964 RMK AO2
KRDK 191115Z AUTO 29009KT 10SM BKN014 OVC032 14/13 A2964 RMK AO2
KRDK 191055Z AUTO 31009KT 10SM OVC033 14/13 A2963 RMK AO2
KRDK 191035Z AUTO 29010KT 10SM SCT015 OVC033 14/13 A2963 RMK AO2
KRDK 191015Z AUTO 30011KT 10SM BKN016 OVC032 14/13 A2962 RMK AO2
KRDK 190955Z AUTO 31009KT 10SM OVC015 14/13 A2962 RMK AO2
KRDK 190935Z AUTO 30007KT 10SM BKN016 OVC060 14/14 A2961 RMK AO2
KRDK 190915Z AUTO 30005G10KT 10SM OVC060 14/14 A2961 RMK AO2
KRDK 190855Z AUTO 31007KT 10SM FEW046 OVC060 14/14 A2960 RMK AO2
KRDK 190835Z AUTO 31006KT 10SM FEW038 SCT046 OVC055 15/14 A2960 RMK AO2
KRDK 190815Z AUTO 33008KT 10SM SCT038 BKN050 OVC055 15/14 A2960 RMK AO2
KRDK 190755Z AUTO 33009KT 10SM SCT033 SCT046 OVC050 15/14 A2960 RMK AO2
KRDK 190735Z AUTO 31008G14KT 10SM SCT018 OVC032 15/14 A2960 RMK AO2
KRDK 190715Z AUTO 30005KT 10SM BKN017 OVC030 15/15 A2961 RMK AO2
KRDK 190655Z AUTO 30006KT 10SM SCT030 SCT200 SCT270 15/15 A2960 RMK AO2
KRDK 190635Z AUTO 33005KT 10SM SCT049 SCT210 BKN270 15/15 A2960 RMK AO2
KRDK 190615Z AUTO 34004KT 10SM FEW028 BKN043 OVC049 15/15 A2960 RMK AO2
KRDK 190555Z AUTO 35004KT 10SM FEW029 SCT041 BKN130 15/15 A2959 RMK AO2
KRDK 190535Z AUTO 35008KT 10SM SCT041 BKN075 BKN140 15/15 A2958 RMK AO2
KRDK 190515Z AUTO 33005KT 10SM OVC075 15/15 A2960 RMK AO2
KRDK 190455Z AUTO 30005G11KT 10SM FEW050 BKN065 OVC075 16/15 A2960 RMK AO2
KRDK 190435Z AUTO 29010KT 10SM FEW020 BKN046 OVC055 16/14 A2963 RMK AO2
KRDK 190415Z AUTO 03006KT 10SM FEW005 SCT039 BKN045 16/14 A2962 RMK AO2
KRDK 190355Z AUTO 31007KT 10SM OVC050 16/16 A2963 RMK AO2
KRDK 190335Z AUTO 29005G10KT 10SM BKN050 OVC150 16/16 A2962 RMK AO2
KRDK 190315Z AUTO 00000KT 10SM FEW048 BKN110 OVC150 15/15 A2961 RMK AO2
KRDK 190255Z AUTO 05005KT 10SM OVC100 15/15 A2959 RMK AO2 P0001
KRDK 190235Z AUTO 06004KT 10SM SCT050 SCT080 OVC100 15/15 A2960 RMK AO2
KRDK 190215Z AUTO 00000KT 10SM FEW035 BKN050 OVC060 16/16 A2960 RMK AO2
KRDK 190155Z AUTO 00000KT 5SM -RA BKN033 BKN045 OVC055 16/15 A2961 RMK AO2 P0001
KRDK 190135Z AUTO 30007KT 2 1/2SM -DZ SCT030 OVC043 16/16 A2961 RMK AO2
KRDK 190115Z AUTO 31005KT 9SM FEW030 BKN037 OVC043 16/15 A2961 RMK AO2
KRDK 190055Z AUTO 30006G11KT 7SM FEW035 OVC043 16/16 A2961 RMK AO2 P0004
KRDK 190035Z AUTO 34006KT 7SM FEW028 FEW039 BKN048 17/16 A2959 RMK AO2
KRDK 190015Z AUTO 31005KT 2 1/2SM -RA SCT028 SCT039 BKN050 17/17 A2959 RMK AO2
KRDK 182355Z AUTO 28008KT 9SM BKN055 BKN070 17/17 A2959 RMK AO2 P0002
KRDK 182335Z AUTO 36006KT 4SM -RA FEW070 17/17 A2957 RMK AO2
KRDK 182315Z AUTO 36008KT 3SM RA FEW039 FEW046 FEW055 17/17 A2956 RMK AO2
KRDK 182255Z AUTO 01004KT 4SM -RA FEW040 FEW046 SCT050 18/17 A2960 RMK AO2 P0004
KRDK 182235Z AUTO 04003KT 6SM -RA FEW042 FEW048 FEW055 18/17 A2961 RMK AO2
KRDK 182215Z AUTO 26003KT 4SM -RA FEW043 FEW050 FEW070 18/18 A2962 RMK AO2
KRDK 182155Z AUTO 21006KT 5SM -RA FEW070 18/18 A2963 RMK AO2 P0008
KRDK 182135Z AUTO 20008KT 4SM -RA FEW009 FEW040 18/18 A2964 RMK AO2
KRDK 182115Z AUTO 19010G15KT 4SM -RA SCT008 SCT030 SCT038 18/18 A2965 RMK AO2
KRDK 182055Z AUTO 17009KT 2SM RA BKN009 BKN018 OVC046 18/18 A2965 RMK AO2 P0016
KRDK 182035Z AUTO 17008G15KT 2 1/2SM -RA FEW011 SCT018 BKN024 18/18 A2968 RMK AO2
KRDK 182015Z AUTO 16019G25KT 3SM BR 19/17 A2967 RMK AO2
KRDK 181955Z AUTO 18012KT 21/16 A2966 RMK AO2 PWINO
KRDK 181935Z AUTO 17012G17KT 9SM BKN039 BKN046 OVC065 22/16 A2964 RMK AO2
KRDK 181915Z AUTO 19012KT 10SM OVC038 23/16 A2963 RMK AO2
KRDK 181855Z AUTO 20010G17KT 10SM BKN039 BKN044 23/16 A2960 RMK AO2
KRDK 181835Z AUTO 22013KT 10SM FEW042 SCT048 23/16 A2957 RMK AO2
KRDK 181815Z AUTO 20014G21KT 10SM BKN043 BKN049 25/16 A2958 RMK AO2
KRDK 181755Z AUTO 20017G24KT 10SM BKN043 BKN055 25/15 A2959 RMK AO2
KRDK 181735Z AUTO 21018KT 10SM SCT045 BKN055 26/15 A2958 RMK AO2
KRDK 181715Z AUTO 20017G23KT 10SM BKN043 OVC055 26/14 A2959 RMK AO2
KRDK 181655Z AUTO 21018G26KT 10SM SCT040 26/15 A2959 RMK AO2
KRDK 181635Z AUTO 19018G24KT 10SM FEW043 26/15 A2958 RMK AO2
KRDK 181615Z AUTO 20017G23KT 10SM SCT043 26/15 A2960 RMK AO2
KRDK 181555Z AUTO 20016G22KT 10SM CLR 25/15 A2960 RMK AO2
KRDK 181535Z AUTO 20016G21KT 10SM CLR 24/15 A2959 RMK AO2
KRDK 181515Z AUTO 18014G19KT 10SM CLR 24/16 A2958 RMK AO2
KRDK 181455Z AUTO 17014KT 10SM CLR 23/15 A2956 RMK AO2
KRDK 181435Z AUTO 17014KT 10SM CLR 22/16 A2956 RMK AO2
KRDK 181415Z AUTO 17009KT 10SM CLR 21/16 A2956 RMK AO2
KRDK 181355Z AUTO 15007KT 10SM CLR 19/16 A2955 RMK AO2
KRDK 181335Z AUTO 13013G22KT 10SM CLR 18/15 A2955 RMK AO2
KRDK 181315Z AUTO 10SM FEW065 FEW095 18/16 A2953 RMK AO2
KRDK 181255Z AUTO 12009KT 10SM FEW037 SCT050 BKN075 18/16 A2960 RMK AO2 P0002
KRDK 181235Z AUTO 15010KT 6SM -RA SCT043 BKN060 OVC100 18/16 A2965 RMK AO2
KRDK 181215Z AUTO 15007KT 10SM FEW038 SCT065 OVC100 18/16 A2963 RMK AO2
KRDK 181155Z AUTO 16005KT 10SM OVC100 18/16 A2964 RMK AO2
KRDK 181135Z AUTO 19007KT 10SM SCT110 18/16 A2965 RMK AO2
KRDK 181115Z AUTO 19007KT 10SM FEW090 SCT120 18/15 A2964 RMK AO2
KRDK 181055Z AUTO 22009KT 10SM OVC090 19/15 A2965 RMK AO2
KRDK 181035Z AUTO 21010KT 10SM FEW060 BKN090 OVC110 19/15 A2966 RMK AO2
KRDK 181015Z AUTO 22011G16KT 10SM SCT044 BKN060 OVC110 20/15 A2965 RMK AO2
KRDK 180955Z AUTO 23009G14KT 10SM FEW035 BKN047 OVC055 20/17 A2962 RMK AO2
KRDK 180935Z AUTO 21012KT 10SM FEW026 SCT037 BKN055 21/18 A2963 RMK AO2
KRDK 180915Z AUTO 20014KT 10SM FEW018 BKN100 OVC220 21/17 A2962 RMK AO2